Time;durP1;ratioP1;P1;durP2;ratioP2;P2;SDS_P1;SDS_P2;PMS_P1;PMS_P2;Temp;Humidity;BMP_temperature;BMP_pressure;BME280_temperature;BME280_humidity;BME280_pressure;Samples;Min_cycle;Max_cycle;Signal;HPM_P1;HPM_P2
2022/08/19 15:27:36;;;;;;;45.30;6.57;;;;;;;;;;5094662;28;20375;-78
2022/08/19 15:30:02;;;;;;;46.08;6.07;;;;;;;;;;5094597;28;20029;-78
2022/08/19 15:32:29;;;;;;;33.45;5.55;;;;;;;;;;5094734;28;20044;-78
2022/08/19 15:34:55;;;;;;;38.88;4.93;;;;;;;;;;5094700;28;20016;-78
2022/08/19 15:37:22;;;;;;;49.55;6.30;;;;;;;;;;5094251;28;20027;-78
2022/08/19 15:39:49;;;;;;;46.30;4.95;;;;;;;;;;5093500;28;20365;-78
2022/08/19 15:42:15;;;;;;;34.35;5.93;;;;;;;;;;5094280;28;20028;-78
2022/08/19 15:44:41;;;;;;;30.52;4.80;;;;;;;;;;5094477;28;20054;-78
2022/08/19 15:47:07;;;;;;;33.03;5.00;;;;;;;;;;5094309;28;20079;-78
2022/08/19 15:49:33;;;;;;;31.63;4.82;;;;;;;;;;5094299;28;20021;-76
2022/08/19 15:52:00;;;;;;;32.95;4.63;;;;;;;;;;5092999;28;20141;-77
2022/08/19 15:54:26;;;;;;;25.75;5.35;;;;;;;;;;5094073;28;20116;-77
2022/08/19 16:07:55;;;;;;;24.20;3.90;;;;;;;;;;5094028;28;20489;-78
2022/08/19 16:10:21;;;;;;;31.33;4.93;;;;;;;;;;5093684;28;20031;-78
2022/08/19 16:12:47;;;;;;;21.30;4.20;;;;;;;;;;5093705;28;20020;-79
2022/08/19 16:15:13;;;;;;;20.67;4.10;;;;;;;;;;5092698;28;20416;-79
2022/08/19 16:17:40;;;;;;;27.83;4.13;;;;;;;;;;5093759;28;20095;-78
2022/08/19 16:20:16;;;;;;;25.33;4.63;;;;;;;;;;5092504;28;20089;-80
2022/08/19 16:22:43;;;;;;;26.35;5.00;;;;;;;;;;5092877;28;20020;-79
2022/08/19 16:25:10;;;;;;;27.83;4.13;;;;;;;;;;5092057;28;20027;-79
2022/08/19 16:27:36;;;;;;;23.92;4.88;;;;;;;;;;5093527;28;20047;-80
2022/08/19 16:30:03;;;;;;;22.77;4.90;;;;;;;;;;5093496;28;20044;-79
2022/08/19 16:32:29;;;;;;;22.17;5.85;;;;;;;;;;5093298;28;20027;-79
2022/08/19 16:34:55;;;;;;;23.30;3.92;;;;;;;;;;5093175;28;20021;-79
2022/08/19 16:37:22;;;;;;;25.70;4.25;;;;;;;;;;5088664;28;20033;-79
2022/08/19 16:39:48;;;;;;;24.13;5.43;;;;;;;;;;5079365;28;20024;-79
2022/08/19 16:42:14;;;;;;;20.77;4.03;;;;;;;;;;5078628;28;20035;-79
2022/08/19 16:44:41;;;;;;;17.58;4.35;;;;;;;;;;5079598;28;20357;-80
2022/08/19 16:47:07;;;;;;;33.78;6.30;;;;;;;;;;5079460;28;20028;-80
2022/08/19 16:49:33;;;;;;;26.30;4.38;;;;;;;;;;5078459;28;20158;-78
2022/08/19 16:52:01;;;;;;;29.38;4.78;;;;;;;;;;5079302;28;20109;-79
2022/08/19 16:54:27;;;;;;;18.92;4.57;;;;;;;;;;5074048;28;20314;-79
2022/08/19 16:56:54;;;;;;;24.73;4.22;;;;;;;;;;5077667;28;20040;-80
2022/08/19 16:59:23;;;;;;;23.33;4.60;;;;;;;;;;5079358;28;20035;-81
2022/08/19 17:01:51;;;;;;;20.20;4.00;;;;;;;;;;5077483;28;20016;-81
2022/08/19 17:04:17;;;;;;;18.92;4.75;;;;;;;;;;5076268;28;20430;-79
2022/08/19 17:06:43;;;;;;;23.15;4.63;;;;;;;;;;5079076;28;20035;-79
2022/08/19 17:09:09;;;;;;;27.58;4.20;;;;;;;;;;5079293;28;20025;-79
2022/08/19 17:11:35;;;;;;;23.42;4.57;;;;;;;;;;5077284;28;20414;-79
2022/08/19 17:14:01;;;;;;;24.30;4.38;;;;;;;;;;5079208;28;20021;-79
2022/08/19 17:16:29;;;;;;;20.45;4.13;;;;;;;;;;5078039;28;20323;-78
2022/08/19 17:18:56;;;;;;;20.13;4.38;;;;;;;;;;5077778;28;20327;-79
2022/08/19 17:21:24;;;;;;;24.10;4.53;;;;;;;;;;5078994;28;20031;-78
2022/08/19 17:23:50;;;;;;;25.25;5.43;;;;;;;;;;5077686;28;20020;-79
2022/08/19 17:26:17;;;;;;;61.67;6.65;;;;;;;;;;5078452;28;20052;-80
2022/08/19 17:28:43;;;;;;;158.43;15.50;;;;;;;;;;5077601;28;20027;-80
2022/08/19 17:31:09;;;;;;;180.02;15.90;;;;;;;;;;5078701;28;20024;-80
2022/08/19 17:33:35;;;;;;;106.80;10.10;;;;;;;;;;5078493;28;20318;-80
2022/08/19 17:36:03;;;;;;;80.47;9.40;;;;;;;;;;5077524;28;20394;-81
2022/08/19 17:38:29;;;;;;;76.00;8.73;;;;;;;;;;5076416;28;20083;-81
2022/08/19 17:41:02;;;;;;;53.85;8.45;;;;;;;;;;5078292;28;20036;-79
2022/08/19 17:43:28;;;;;;;28.65;5.53;;;;;;;;;;5078621;28;20036;-78
2022/08/19 17:45:54;;;;;;;38.63;5.20;;;;;;;;;;5077142;28;20041;-79
2022/08/19 17:48:22;;;;;;;31.20;4.90;;;;;;;;;;5078110;28;20025;-81
2022/08/19 17:50:50;;;;;;;26.50;6.72;;;;;;;;;;5077463;28;20035;-80
2022/08/19 17:53:16;;;;;;;12.88;3.55;;;;;;;;;;5078336;28;20157;-77
2022/08/19 17:55:43;;;;;;;21.65;4.25;;;;;;;;;;5078227;28;20037;-77
2022/08/19 17:58:09;;;;;;;11.25;3.53;;;;;;;;;;5076965;28;20029;-77
2022/08/19 18:00:35;;;;;;;11.00;2.33;;;;;;;;;;5078306;28;20035;-76
2022/08/19 18:03:02;;;;;;;15.55;4.13;;;;;;;;;;5078259;28;20066;-76
2022/08/19 18:05:33;;;;;;;21.13;4.20;;;;;;;;;;5076962;28;20462;-76
2022/08/19 18:07:59;;;;;;;10.73;3.60;;;;;;;;;;5078154;28;20025;-76
2022/08/19 18:10:27;;;;;;;14.02;7.80;;;;;;;;;;5076691;28;20032;-76
2022/08/19 18:12:53;;;;;;;14.50;4.38;;;;;;;;;;5077057;28;20029;-77
2022/08/19 18:15:20;;;;;;;12.30;3.90;;;;;;;;;;5078105;28;20020;-76
2022/08/19 18:17:46;;;;;;;14.68;4.88;;;;;;;;;;5078061;28;20017;-77
2022/08/19 18:20:13;;;;;;;24.70;5.80;;;;;;;;;;5078128;28;20024;-77
2022/08/19 18:22:41;;;;;;;31.90;8.00;;;;;;;;;;5076653;28;20116;-76
2022/08/19 19:05:47;;;;;;;15.60;4.25;;;;;;;;;;5115078;27;20720;-77
2022/08/19 19:08:16;;;;;;;10.75;3.70;;;;;;;;;;5113850;28;20043;-77
2022/08/19 19:10:42;;;;;;;7.88;3.50;;;;;;;;;;5114633;28;20032;-78
2022/08/19 19:13:14;;;;;;;10.82;3.75;;;;;;;;;;5113429;28;20077;-78
2022/08/19 19:15:42;;;;;;;13.68;4.00;;;;;;;;;;5114841;28;20028;-78
2022/08/19 19:18:12;;;;;;;14.18;4.13;;;;;;;;;;5112941;28;20309;-80
2022/08/19 19:20:39;;;;;;;16.10;4.53;;;;;;;;;;5113819;28;20016;-82
2022/08/19 19:23:05;;;;;;;13.18;4.85;;;;;;;;;;5114023;28;20055;-80
2022/08/19 19:25:32;;;;;;;9.27;4.35;;;;;;;;;;5113652;28;20321;-78
2022/08/19 19:28:03;;;;;;;16.05;4.18;;;;;;;;;;5114409;28;20095;-79
2022/08/19 19:30:30;;;;;;;10.77;4.05;;;;;;;;;;5114054;28;20023;-80
2022/08/19 19:32:57;;;;;;;12.32;4.88;;;;;;;;;;5112821;28;20364;-79
2022/08/19 19:35:26;;;;;;;14.18;4.72;;;;;;;;;;5113042;28;20134;-82
2022/08/19 19:38:05;;;;;;;12.25;4.57;;;;;;;;;;5112802;28;20039;-80
2022/08/19 19:40:32;;;;;;;15.75;4.43;;;;;;;;;;5114194;28;20026;-80
2022/08/19 19:43:03;;;;;;;15.85;5.63;;;;;;;;;;5112793;28;20064;-81
2022/08/19 19:45:29;;;;;;;19.80;4.88;;;;;;;;;;5113744;28;20027;-79
2022/08/19 19:47:57;;;;;;;16.20;5.38;;;;;;;;;;5113700;28;20069;-78
2022/08/19 19:50:32;;;;;;;13.50;5.35;;;;;;;;;;5112748;28;20027;-79
2022/08/19 19:53:01;;;;;;;11.80;4.82;;;;;;;;;;5112431;28;20114;-79
2022/08/19 19:55:30;;;;;;;19.23;5.50;;;;;;;;;;5112719;28;20046;-76
2022/08/19 19:57:58;;;;;;;14.98;5.63;;;;;;;;;;5112289;28;20074;-74
2022/08/19 20:00:24;;;;;;;11.50;4.97;;;;;;;;;;5113441;28;20016;-79
2022/08/19 20:02:54;;;;;;;17.90;5.47;;;;;;;;;;5113167;28;20050;-80
2022/08/19 20:05:23;;;;;;;19.15;6.03;;;;;;;;;;5107370;28;20044;-78
2022/08/19 20:10:35;;;;;;;17.38;8.73;;;;;;;;;;5100002;28;20047;-76
2022/08/19 20:13:01;;;;;;;14.15;6.32;;;;;;;;;;5099886;28;20111;-76
2022/08/19 20:15:28;;;;;;;18.40;5.70;;;;;;;;;;5099853;28;20017;-76
2022/08/19 20:17:54;;;;;;;21.38;6.28;;;;;;;;;;5099885;28;20035;-76
2022/08/19 20:20:20;;;;;;;18.30;6.18;;;;;;;;;;5099785;28;20024;-76
2022/08/19 20:22:46;;;;;;;21.58;5.43;;;;;;;;;;5099738;28;20024;-76
2022/08/19 20:25:14;;;;;;;22.23;6.30;;;;;;;;;;5099555;28;20460;-76
2022/08/19 20:27:40;;;;;;;15.50;5.57;;;;;;;;;;5099695;28;20025;-77
2022/08/19 20:30:08;;;;;;;18.17;6.47;;;;;;;;;;5099586;28;20027;-76
2022/08/19 20:32:34;;;;;;;11.93;6.45;;;;;;;;;;5099583;28;20020;-75
2022/08/19 20:35:00;;;;;;;15.07;6.30;;;;;;;;;;5099705;28;20055;-76
2022/08/19 20:37:27;;;;;;;17.70;6.50;;;;;;;;;;5099422;28;20322;-76
2022/08/19 20:39:53;;;;;;;16.20;6.05;;;;;;;;;;5099381;28;20024;-76
2022/08/19 20:42:20;;;;;;;11.95;5.45;;;;;;;;;;5099409;28;20028;-75
2022/08/19 20:44:46;;;;;;;17.60;5.97;;;;;;;;;;5099184;28;20024;-75
2022/08/19 20:47:13;;;;;;;29.88;6.88;;;;;;;;;;5099437;28;20028;-76
2022/08/19 20:49:39;;;;;;;12.82;5.63;;;;;;;;;;5099406;28;20032;-76
2022/08/19 20:52:05;;;;;;;17.75;5.93;;;;;;;;;;5098402;28;20401;-75
2022/08/19 20:54:32;;;;;;;11.38;5.22;;;;;;;;;;5099172;28;20028;-76
2022/08/19 20:56:58;;;;;;;15.52;6.00;;;;;;;;;;5098386;28;20397;-75
2022/08/19 20:59:25;;;;;;;19.48;6.30;;;;;;;;;;5098623;28;20032;-76
2022/08/19 21:01:51;;;;;;;15.90;6.03;;;;;;;;;;5098796;28;20102;-76
2022/08/19 21:04:19;;;;;;;20.55;5.45;;;;;;;;;;5097766;28;20043;-76
2022/08/19 21:06:45;;;;;;;13.68;6.85;;;;;;;;;;5098666;28;20085;-75
2022/08/19 21:09:11;;;;;;;17.42;6.38;;;;;;;;;;5098835;28;20020;-77
2022/08/19 21:11:37;;;;;;;18.45;6.38;;;;;;;;;;5097909;28;20020;-76
2022/08/19 21:14:03;;;;;;;20.65;6.65;;;;;;;;;;5098790;28;20036;-76
2022/08/19 21:16:31;;;;;;;16.38;6.65;;;;;;;;;;5098289;28;20050;-75
2022/08/19 21:18:57;;;;;;;16.25;6.57;;;;;;;;;;5098372;28;20141;-76
2022/08/19 21:21:23;;;;;;;20.92;7.13;;;;;;;;;;5098668;28;20021;-76
2022/08/19 21:23:49;;;;;;;18.23;6.45;;;;;;;;;;5098598;28;20072;-75
2022/08/19 21:26:16;;;;;;;16.10;7.20;;;;;;;;;;5097832;28;20079;-76
2022/08/19 21:28:42;;;;;;;18.50;6.07;;;;;;;;;;5098597;28;20052;-75
2022/08/19 21:31:09;;;;;;;20.52;6.97;;;;;;;;;;5098635;28;20024;-76
2022/08/19 21:33:35;;;;;;;16.33;5.85;;;;;;;;;;5097412;28;20453;-76
2022/08/19 21:36:02;;;;;;;19.50;5.97;;;;;;;;;;5098323;28;20028;-76
2022/08/19 21:38:28;;;;;;;24.00;6.45;;;;;;;;;;5098325;28;20425;-76
2022/08/19 21:40:55;;;;;;;22.13;6.75;;;;;;;;;;5098319;28;20398;-76
2022/08/19 21:43:21;;;;;;;17.45;5.93;;;;;;;;;;5098292;28;20318;-76
2022/08/19 21:45:49;;;;;;;20.00;6.00;;;;;;;;;;5098218;28;20020;-75
2022/08/19 21:48:16;;;;;;;17.75;6.85;;;;;;;;;;5097272;28;20036;-75
2022/08/19 21:50:43;;;;;;;15.43;6.00;;;;;;;;;;5098325;28;20032;-76
2022/08/19 21:53:09;;;;;;;16.42;6.60;;;;;;;;;;5098157;28;20024;-76
2022/08/19 21:55:35;;;;;;;23.35;6.93;;;;;;;;;;5097958;28;20031;-76
2022/08/19 21:58:01;;;;;;;22.42;7.15;;;;;;;;;;5098043;28;20024;-76
2022/08/19 22:00:28;;;;;;;23.15;6.65;;;;;;;;;;5097867;28;20025;-76
2022/08/19 22:02:55;;;;;;;22.05;6.72;;;;;;;;;;5097749;28;20024;-76
2022/08/19 22:05:23;;;;;;;17.23;6.40;;;;;;;;;;5099586;28;20055;-76
2022/08/19 22:07:53;;;;;;;25.00;7.32;;;;;;;;;;5097670;28;20031;-76
2022/08/19 22:10:21;;;;;;;21.25;7.30;;;;;;;;;;5097652;28;20024;-76
2022/08/19 22:12:47;;;;;;;23.02;7.50;;;;;;;;;;5097752;28;20028;-76
2022/08/19 22:15:14;;;;;;;18.48;6.75;;;;;;;;;;5097753;28;20107;-76
2022/08/19 22:17:40;;;;;;;18.83;6.90;;;;;;;;;;5097362;28;20016;-76
2022/08/19 22:20:09;;;;;;;21.73;6.78;;;;;;;;;;5097726;28;20035;-76
2022/08/19 22:22:36;;;;;;;23.45;7.15;;;;;;;;;;5097631;28;20032;-76
2022/08/19 22:25:05;;;;;;;18.20;7.68;;;;;;;;;;5097443;28;20024;-76
2022/08/19 22:27:31;;;;;;;23.30;7.55;;;;;;;;;;5097461;28;20035;-76
2022/08/19 22:29:57;;;;;;;18.10;6.88;;;;;;;;;;5097253;28;20070;-75
2022/08/19 22:32:23;;;;;;;20.63;7.25;;;;;;;;;;5097328;28;20032;-76
2022/08/19 22:34:49;;;;;;;18.25;6.05;;;;;;;;;;5097221;28;20097;-76
2022/08/19 22:37:15;;;;;;;24.13;6.85;;;;;;;;;;5097341;28;20069;-76
2022/08/19 22:39:41;;;;;;;19.52;6.68;;;;;;;;;;5097268;28;20027;-76
2022/08/19 22:42:08;;;;;;;18.58;6.97;;;;;;;;;;5096681;28;20032;-76
2022/08/19 22:44:34;;;;;;;17.35;5.88;;;;;;;;;;5097308;28;20044;-76
2022/08/19 22:47:01;;;;;;;19.25;6.28;;;;;;;;;;5096195;28;20020;-76
2022/08/19 22:49:27;;;;;;;15.73;5.10;;;;;;;;;;5097228;28;20317;-76
2022/08/19 22:54:37;;;;;;;14.57;5.50;;;;;;;;;;5097122;28;20066;-76
2022/08/19 22:57:03;;;;;;;16.88;6.05;;;;;;;;;;5097351;28;20021;-76
2022/08/19 22:59:29;;;;;;;17.05;5.43;;;;;;;;;;5097200;28;20390;-76
2022/08/19 23:01:55;;;;;;;15.85;5.38;;;;;;;;;;5097234;28;20028;-76
2022/08/19 23:04:21;;;;;;;17.60;5.90;;;;;;;;;;5096921;28;20048;-76
2022/08/19 23:06:47;;;;;;;13.68;5.47;;;;;;;;;;5096825;28;20340;-76
2022/08/19 23:09:14;;;;;;;17.63;5.35;;;;;;;;;;5097027;28;20020;-76
2022/08/19 23:11:40;;;;;;;18.67;6.10;;;;;;;;;;5097216;28;20020;-76
2022/08/19 23:14:06;;;;;;;18.85;5.32;;;;;;;;;;5097018;28;20032;-76
2022/08/19 23:16:35;;;;;;;18.50;5.95;;;;;;;;;;5096844;28;20012;-76
2022/08/19 23:19:01;;;;;;;18.58;8.48;;;;;;;;;;5096869;28;20537;-76
2022/08/19 23:21:27;;;;;;;17.77;7.22;;;;;;;;;;5095770;28;20108;-76
2022/08/19 23:23:53;;;;;;;17.73;8.85;;;;;;;;;;5096934;28;20032;-76
2022/08/19 23:26:20;;;;;;;17.45;7.63;;;;;;;;;;5096837;28;20031;-76
2022/08/19 23:31:31;;;;;;;22.63;8.77;;;;;;;;;;5097084;28;20082;-76
2022/08/19 23:33:58;;;;;;;24.15;9.00;;;;;;;;;;5095569;28;20028;-76
2022/08/19 23:36:25;;;;;;;28.33;10.05;;;;;;;;;;5096708;28;20082;-76
2022/08/19 23:38:52;;;;;;;26.52;11.77;;;;;;;;;;5096877;28;20024;-76
2022/08/19 23:41:19;;;;;;;37.83;16.02;;;;;;;;;;5099087;28;20071;-76
2022/08/19 23:43:45;;;;;;;46.40;19.50;;;;;;;;;;5100424;28;20035;-76
2022/08/19 23:46:12;;;;;;;44.55;19.20;;;;;;;;;;5100426;28;20375;-76
2022/08/19 23:48:39;;;;;;;32.70;15.80;;;;;;;;;;5099654;28;20036;-76
2022/08/19 23:51:07;;;;;;;38.80;12.40;;;;;;;;;;5099337;28;20056;-76
2022/08/19 23:53:33;;;;;;;27.00;10.05;;;;;;;;;;5100469;28;20024;-76
2022/08/19 23:55:59;;;;;;;18.42;7.85;;;;;;;;;;5100220;28;20433;-80
2022/08/19 23:58:25;;;;;;;17.42;7.70;;;;;;;;;;5100216;28;20402;-80
